createdAt,value
2023-05-03T00:01:26.492Z,3.98
2023-05-03T00:04:33.083Z,5.78
2023-05-03T00:07:38.651Z,6.28
2023-05-03T00:10:44.051Z,4.42
2023-05-03T00:13:49.888Z,8.38
2023-05-03T00:16:56.560Z,5.17
2023-05-03T00:20:03.880Z,4.10
2023-05-03T00:23:10.792Z,4.10
2023-05-03T00:26:09.593Z,3.83
2023-05-03T00:28:56.367Z,4.75
2023-05-03T00:31:50.649Z,4.62
2023-05-03T00:34:56.963Z,2.98
2023-05-03T00:37:55.931Z,2.90
2023-05-03T00:40:48.205Z,3.30
2023-05-03T00:43:53.084Z,3.08
2023-05-03T00:46:59.986Z,3.85
2023-05-03T00:50:05.765Z,2.70
2023-05-03T00:53:12.880Z,3.60
2023-05-03T00:56:18.262Z,3.20
2023-05-03T00:59:24.331Z,3.40
2023-05-03T01:02:32.248Z,3.80
2023-05-03T01:05:38.990Z,2.90
2023-05-03T01:09:01.793Z,3.50
2023-05-03T01:12:31.562Z,3.25
2023-05-03T01:15:50.367Z,3.53
2023-05-03T01:18:57.126Z,3.62
2023-05-03T01:21:58.506Z,4.45
2023-05-03T01:25:24.390Z,3.35
2023-05-03T01:28:30.200Z,3.40
2023-05-03T01:32:08.195Z,3.50
2023-05-03T01:35:27.510Z,3.30
2023-05-03T01:38:33.392Z,3.42
2023-05-03T01:41:40.482Z,3.37
2023-05-03T01:44:46.343Z,3.52
2023-05-03T01:47:52.953Z,3.47
2023-05-03T01:50:59.901Z,3.02
2023-05-03T01:54:06.873Z,3.02
2023-05-03T01:57:12.856Z,3.33
2023-05-03T02:00:18.578Z,3.58
2023-05-03T02:03:24.473Z,3.92
2023-05-03T02:06:29.265Z,4.00
2023-05-03T02:09:35.453Z,4.15
2023-05-03T02:12:41.356Z,3.45
2023-05-03T02:15:48.416Z,3.10
2023-05-03T02:18:48.707Z,3.37
2023-05-03T02:24:57.455Z,3.80
2023-05-03T02:28:03.849Z,4.42
2023-05-03T02:31:12.159Z,5.00
2023-05-03T02:34:18.900Z,5.33
2023-05-03T02:37:24.378Z,5.10
2023-05-03T02:40:29.962Z,6.03
2023-05-03T02:43:35.992Z,4.30
2023-05-03T02:46:41.753Z,5.17
2023-05-03T02:49:42.513Z,6.30
2023-05-03T02:52:48.476Z,6.00
2023-05-03T02:55:55.376Z,6.22
2023-05-03T02:59:02.285Z,6.08
2023-05-03T03:02:08.009Z,6.60
2023-05-03T03:05:15.874Z,5.67
2023-05-03T03:08:23.467Z,4.75
2023-05-03T03:11:30.965Z,5.08
2023-05-03T03:14:36.563Z,5.03
2023-05-03T03:17:43.956Z,4.95
2023-05-03T03:20:49.983Z,5.65
2023-05-03T03:23:56.028Z,5.92
2023-05-03T03:27:01.784Z,4.90
2023-05-03T03:30:08.302Z,5.17
2023-05-03T03:33:16.848Z,5.25
2023-05-03T03:36:22.975Z,5.30
2023-05-03T03:39:27.984Z,4.90
2023-05-03T03:42:34.092Z,5.20
2023-05-03T03:45:39.642Z,5.03
2023-05-03T03:48:45.548Z,6.40
2023-05-03T03:51:51.504Z,5.33
2023-05-03T03:54:58.034Z,6.58
2023-05-03T03:57:59.173Z,7.00
2023-05-03T04:01:07.655Z,6.37
2023-05-03T04:04:14.499Z,6.37
2023-05-03T04:07:20.397Z,6.40
2023-05-03T04:10:27.393Z,5.72
2023-05-03T04:13:34.285Z,5.55
2023-05-03T04:16:40.016Z,5.28
2023-05-03T04:19:46.507Z,4.97
2023-05-03T04:22:52.266Z,6.15
2023-05-03T04:26:00.899Z,5.95
2023-05-03T04:29:07.066Z,6.53
2023-05-03T04:32:13.453Z,6.10
2023-05-03T04:35:20.341Z,5.42
2023-05-03T04:38:27.440Z,6.17
2023-05-03T04:41:34.324Z,5.30
2023-05-03T04:44:40.835Z,5.30
2023-05-03T04:47:46.763Z,5.75
2023-05-03T04:50:53.639Z,4.90
2023-05-03T04:54:00.601Z,5.08
2023-05-03T04:57:06.024Z,4.37
2023-05-03T05:00:14.636Z,4.62
2023-05-03T05:03:22.326Z,4.50
2023-05-03T05:06:27.576Z,4.28
2023-05-03T05:09:39.515Z,4.40
2023-05-03T05:12:38.209Z,4.08
2023-05-03T05:15:42.065Z,3.98
2023-05-03T05:18:48.631Z,3.50
2023-05-03T05:21:56.871Z,4.17
2023-05-03T05:25:05.123Z,4.08
2023-05-03T05:28:11.311Z,3.40
2023-05-03T05:31:16.432Z,3.25
2023-05-03T05:34:26.778Z,2.95
2023-05-03T05:37:32.370Z,3.30
2023-05-03T05:40:39.069Z,2.90
2023-05-03T05:43:39.794Z,3.40
2023-05-03T05:46:32.344Z,2.92
2023-05-03T05:49:37.376Z,3.10
2023-05-03T05:52:42.916Z,3.00
2023-05-03T05:55:48.319Z,2.58
2023-05-03T05:58:53.724Z,2.60
2023-05-03T06:01:59.475Z,2.67
2023-05-03T06:05:07.693Z,2.20
2023-05-03T06:08:12.444Z,2.42
2023-05-03T06:11:21.316Z,2.33
2023-05-03T06:14:27.834Z,2.70
2023-05-03T06:17:34.206Z,2.42
2023-05-03T06:20:40.970Z,2.47
2023-05-03T06:23:46.746Z,2.62
2023-05-03T06:26:53.099Z,2.52
2023-05-03T06:29:58.482Z,1.85
2023-05-03T06:33:04.550Z,2.60
2023-05-03T06:36:10.322Z,2.42
2023-05-03T06:39:18.042Z,1.85
2023-05-03T06:42:23.725Z,2.08
2023-05-03T06:45:39.092Z,2.30
2023-05-03T06:48:44.226Z,1.95
2023-05-03T06:51:44.830Z,2.77
2023-05-03T06:54:50.364Z,2.05
2023-05-03T06:58:00.501Z,2.00
2023-05-03T07:01:08.560Z,1.55
2023-05-03T07:04:14.064Z,1.50
2023-05-03T07:07:19.666Z,1.87
2023-05-03T07:10:25.144Z,1.57
2023-05-03T07:13:30.358Z,1.80
2023-05-03T07:16:35.309Z,1.90
2023-05-03T07:19:40.715Z,1.90
2023-05-03T07:22:46.148Z,1.75
2023-05-03T07:25:50.696Z,1.62
2023-05-03T07:28:56.162Z,1.70
2023-05-03T07:32:02.013Z,1.32
2023-05-03T07:35:07.312Z,1.50
2023-05-03T07:38:13.159Z,1.65
2023-05-03T07:41:18.686Z,1.67
2023-05-03T07:44:23.606Z,1.82
2023-05-03T07:47:29.283Z,1.55
2023-05-03T07:50:35.253Z,1.70
2023-05-03T07:53:43.924Z,1.45
2023-05-03T07:56:49.551Z,1.85
2023-05-03T07:59:55.198Z,1.87
2023-05-03T08:03:03.964Z,2.47
2023-05-03T08:06:09.713Z,2.12
2023-05-03T08:09:16.119Z,1.60
2023-05-03T08:12:25.126Z,1.87
2023-05-03T08:15:31.419Z,1.75
2023-05-03T08:18:36.834Z,1.55
2023-05-03T08:21:42.390Z,1.40
2023-05-03T08:24:47.033Z,2.10
2023-05-03T08:27:52.632Z,2.00
2023-05-03T08:30:59.633Z,1.60
2023-05-03T08:34:05.761Z,1.50
2023-05-03T08:37:05.626Z,1.92
2023-05-03T08:40:13.000Z,1.22
2023-05-03T08:43:22.441Z,1.72
2023-05-03T08:46:27.711Z,3.50
2023-05-03T08:49:33.865Z,1.45
2023-05-03T08:52:41.677Z,1.60
2023-05-03T08:55:49.256Z,1.52
2023-05-03T08:58:55.834Z,1.22
2023-05-03T09:02:01.770Z,1.80
2023-05-03T09:05:07.361Z,1.65
2023-05-03T09:08:23.929Z,1.52
2023-05-03T09:11:41.738Z,1.32
2023-05-03T09:14:49.135Z,1.05
2023-05-03T09:17:55.645Z,1.30
2023-05-03T09:21:02.729Z,1.47
2023-05-03T09:24:10.181Z,1.70
2023-05-03T09:27:17.478Z,1.32
2023-05-03T09:30:35.872Z,1.60
2023-05-03T09:33:44.566Z,1.65
2023-05-03T09:37:02.914Z,1.87
2023-05-03T09:40:10.766Z,1.77
2023-05-03T09:43:24.278Z,1.47
2023-05-03T09:46:31.899Z,1.50
2023-05-03T09:49:37.187Z,1.50
2023-05-03T09:52:45.152Z,1.50
2023-05-03T09:55:54.807Z,1.37
2023-05-03T09:58:59.576Z,1.50
2023-05-03T10:02:09.219Z,1.25
2023-05-03T10:05:14.098Z,1.45
2023-05-03T10:08:19.368Z,1.47
2023-05-03T10:11:24.612Z,1.55
2023-05-03T10:14:29.704Z,1.90
2023-05-03T10:17:46.924Z,1.40
2023-05-03T10:20:59.299Z,1.50
2023-05-03T10:24:29.851Z,1.60
2023-05-03T10:27:37.469Z,1.72
2023-05-03T10:30:45.605Z,1.67
2023-05-03T10:33:50.524Z,2.35
2023-05-03T10:36:59.279Z,1.67
2023-05-03T10:40:06.236Z,1.50
2023-05-03T10:43:11.625Z,1.60
2023-05-03T10:46:22.149Z,1.70
2023-05-03T10:49:33.740Z,1.45
2023-05-03T10:52:56.769Z,1.90
2023-05-03T10:56:26.263Z,1.70
2023-05-03T10:59:32.288Z,1.60
2023-05-03T11:02:39.842Z,2.05
2023-05-03T11:05:45.053Z,1.65
2023-05-03T11:08:50.771Z,1.35
2023-05-03T11:11:56.133Z,1.62
2023-05-03T11:15:03.762Z,1.72
2023-05-03T11:18:10.527Z,1.30
2023-05-03T11:21:15.961Z,1.80
2023-05-03T11:24:20.989Z,1.77
2023-05-03T11:27:27.199Z,1.77
2023-05-03T11:30:33.269Z,1.72
2023-05-03T11:33:41.518Z,2.27
2023-05-03T11:36:46.602Z,1.65
2023-05-03T11:39:51.541Z,1.15
2023-05-03T11:43:14.412Z,1.50
2023-05-03T11:46:19.910Z,1.77
2023-05-03T11:49:26.018Z,1.75
2023-05-03T11:52:37.683Z,3.05
2023-05-03T11:55:44.202Z,1.77
2023-05-03T11:58:50.076Z,1.65
2023-05-03T12:01:56.426Z,1.90
2023-05-03T12:05:04.536Z,1.75
2023-05-03T12:08:14.279Z,2.22
2023-05-03T12:11:19.212Z,1.82
2023-05-03T12:14:26.388Z,2.00
2023-05-03T12:17:51.152Z,1.98
2023-05-03T12:21:30.512Z,1.80
2023-05-03T12:24:05.825Z,1.82
2023-05-03T12:27:10.068Z,1.90
2023-05-03T12:30:18.438Z,1.85
2023-05-03T12:33:28.199Z,1.75
2023-05-03T12:36:37.471Z,1.80
2023-05-03T12:39:41.223Z,1.67
2023-05-03T12:42:48.989Z,1.50
2023-05-03T12:46:25.126Z,1.60
2023-05-03T12:49:06.744Z,2.17
2023-05-03T12:52:36.246Z,1.62
2023-05-03T12:55:17.958Z,1.57
2023-05-03T13:04:57.202Z,1.40
2023-05-03T13:07:44.210Z,1.60
2023-05-03T13:10:55.135Z,1.60
2023-05-03T13:14:00.633Z,1.70
2023-05-03T13:17:06.540Z,1.50
2023-05-03T13:20:14.144Z,1.45
2023-05-03T13:23:19.185Z,1.77
2023-05-03T13:26:26.074Z,1.55
2023-05-03T13:29:31.802Z,1.57
2023-05-03T13:32:36.412Z,1.77
2023-05-03T13:35:42.295Z,1.70
2023-05-03T13:38:48.919Z,1.77
2023-05-03T13:41:57.102Z,1.40
2023-05-03T13:45:03.480Z,1.45
2023-05-03T13:48:18.288Z,1.60
2023-05-03T13:51:26.688Z,1.85
2023-05-03T13:54:33.346Z,1.90
2023-05-03T13:57:39.105Z,1.57
2023-05-03T14:00:44.923Z,1.60
2023-05-03T14:03:51.855Z,1.70
2023-05-03T14:06:43.416Z,2.05
2023-05-03T14:09:50.077Z,1.42
2023-05-03T14:12:57.251Z,1.32
2023-05-03T14:16:03.011Z,1.40
2023-05-03T14:19:11.469Z,1.87
2023-05-03T14:22:18.069Z,1.35
2023-05-03T14:25:24.627Z,1.40
2023-05-03T14:28:30.217Z,1.37
2023-05-03T14:31:36.028Z,1.47
2023-05-03T14:34:42.489Z,1.27
2023-05-03T14:37:48.521Z,1.37
2023-05-03T14:40:55.090Z,1.22
2023-05-03T14:44:01.614Z,1.45
2023-05-03T14:47:07.419Z,1.85
2023-05-03T14:50:13.748Z,1.98
2023-05-03T14:53:12.339Z,1.30
2023-05-03T14:56:17.982Z,1.30
2023-05-03T14:59:23.562Z,1.30
2023-05-03T15:02:29.338Z,1.25
2023-05-03T15:05:35.379Z,1.20
2023-05-03T15:08:40.933Z,1.50
2023-05-03T15:11:48.721Z,1.30
2023-05-03T15:14:53.891Z,1.30
2023-05-03T15:18:00.506Z,1.47
2023-05-03T15:21:07.084Z,1.70
2023-05-03T15:24:05.891Z,1.67
2023-05-03T15:27:11.540Z,1.57
2023-05-03T15:30:18.656Z,1.30
2023-05-03T15:33:24.487Z,1.60
2023-05-03T15:36:30.474Z,1.47
2023-05-03T15:39:35.514Z,1.50
2023-05-03T15:42:41.879Z,1.17
2023-05-03T15:45:49.266Z,1.52
2023-05-03T15:48:54.901Z,1.75
2023-05-03T15:52:00.493Z,1.72
2023-05-03T15:55:05.952Z,2.08
2023-05-03T15:58:14.052Z,1.60
2023-05-03T16:01:20.485Z,1.90
2023-05-03T16:04:25.791Z,1.60
2023-05-03T16:07:33.736Z,1.72
2023-05-03T16:10:39.463Z,1.40
2023-05-03T16:13:45.141Z,1.50
2023-05-03T16:16:53.849Z,1.80
2023-05-03T16:19:59.879Z,1.60
2023-05-03T16:23:04.931Z,1.57
2023-05-03T16:26:11.388Z,1.82
2023-05-03T16:29:17.309Z,1.72
2023-05-03T16:32:23.650Z,1.90
2023-05-03T16:35:29.642Z,1.82
2023-05-03T16:38:37.380Z,1.90
2023-05-03T16:41:43.629Z,3.10
2023-05-03T16:44:49.377Z,2.98
2023-05-03T16:47:55.476Z,3.22
2023-05-03T16:51:01.087Z,3.20
2023-05-03T16:54:06.851Z,3.22
2023-05-03T16:57:12.393Z,9.48
2023-05-03T17:00:19.350Z,5.00
2023-05-03T17:03:26.000Z,4.85
2023-05-03T17:06:33.461Z,3.60
2023-05-03T17:09:38.260Z,2.90
2023-05-03T17:12:44.471Z,3.92
2023-05-03T17:15:51.801Z,3.83
2023-05-03T17:18:58.465Z,2.83
2023-05-03T17:22:04.845Z,2.45
2023-05-03T17:25:13.505Z,2.70
2023-05-03T17:28:19.113Z,2.80
2023-05-03T17:31:23.776Z,2.17
2023-05-03T17:34:29.648Z,2.67
2023-05-03T17:37:35.991Z,2.62
2023-05-03T17:40:41.719Z,2.30
2023-05-03T17:43:51.636Z,2.65
2023-05-03T17:46:57.832Z,3.03
2023-05-03T17:50:03.841Z,2.35
2023-05-03T17:53:09.962Z,2.83
2023-05-03T17:56:15.256Z,2.90
2023-05-03T17:59:21.513Z,2.65
2023-05-03T18:02:28.013Z,2.52
2023-05-03T18:05:33.868Z,2.72
2023-05-03T18:08:39.701Z,3.67
2023-05-03T18:11:46.264Z,3.70
2023-05-03T18:14:52.083Z,5.08
2023-05-03T18:17:58.639Z,5.08
2023-05-03T18:21:19.107Z,5.65
2023-05-03T18:24:25.969Z,5.30
2023-05-03T18:27:32.067Z,6.85
2023-05-03T18:30:37.845Z,6.05
2023-05-03T18:33:43.301Z,6.20
2023-05-03T18:36:48.818Z,6.97
2023-05-03T18:39:54.125Z,5.10
2023-05-03T18:43:00.798Z,7.00
2023-05-03T18:46:06.328Z,5.80
2023-05-03T18:49:12.503Z,5.90
2023-05-03T18:52:18.288Z,6.35
2023-05-03T18:55:24.312Z,6.35
2023-05-03T18:58:30.535Z,6.55
2023-05-03T19:01:37.100Z,5.75
2023-05-03T19:04:42.986Z,5.78
2023-05-03T19:07:50.279Z,6.08
2023-05-03T19:10:56.484Z,5.70
2023-05-03T19:14:02.412Z,5.58
2023-05-03T19:17:08.879Z,6.60
2023-05-03T19:20:14.348Z,6.05
2023-05-03T19:23:19.881Z,7.55
2023-05-03T19:26:25.642Z,7.22
2023-05-03T19:29:30.805Z,5.97
2023-05-03T19:32:36.091Z,5.70
2023-05-03T19:35:42.607Z,6.60
2023-05-03T19:38:43.084Z,6.12
2023-05-03T19:41:29.438Z,6.37
2023-05-03T19:44:28.972Z,6.90
2023-05-03T19:47:34.238Z,6.47
2023-05-03T19:50:39.885Z,7.28
2023-05-03T19:53:48.562Z,6.78
2023-05-03T19:56:53.618Z,7.22
2023-05-03T19:59:59.387Z,5.90
2023-05-03T20:03:05.280Z,6.00
2023-05-03T20:06:10.916Z,6.17
2023-05-03T20:09:18.121Z,5.90
2023-05-03T20:12:23.820Z,5.28
2023-05-03T20:15:29.214Z,5.60
2023-05-03T20:18:35.447Z,5.80
2023-05-03T20:21:40.703Z,6.53
2023-05-03T20:24:46.352Z,6.67
2023-05-03T20:27:52.812Z,6.15
2023-05-03T20:30:58.459Z,5.92
2023-05-03T20:34:04.799Z,6.78
2023-05-03T20:37:09.984Z,6.40
2023-05-03T20:40:15.411Z,5.85
2023-05-03T20:43:20.933Z,5.83
2023-05-03T20:46:26.085Z,6.80
2023-05-03T20:49:31.627Z,6.08
2023-05-03T20:52:37.851Z,5.55
2023-05-03T20:55:42.801Z,5.08
2023-05-03T20:58:48.606Z,4.95
2023-05-03T21:01:55.006Z,5.35
2023-05-03T21:05:00.799Z,6.15
2023-05-03T21:08:06.355Z,5.50
2023-05-03T21:11:15.152Z,5.65
2023-05-03T21:14:21.817Z,6.60
2023-05-03T21:17:27.581Z,5.60
2023-05-03T21:20:33.190Z,5.92
2023-05-03T21:23:38.886Z,6.03
2023-05-03T21:26:45.054Z,6.40
2023-05-03T21:29:51.736Z,7.22
2023-05-03T21:32:57.077Z,6.47
2023-05-03T21:36:03.616Z,6.30
2023-05-03T21:39:08.612Z,5.78
2023-05-03T21:42:14.863Z,5.92
2023-05-03T21:45:20.454Z,6.30
2023-05-03T21:48:26.088Z,5.45
2023-05-03T21:51:36.328Z,5.90
2023-05-03T21:54:42.834Z,5.62
2023-05-03T21:57:47.884Z,5.60
2023-05-03T22:00:52.863Z,5.30
2023-05-03T22:03:59.987Z,4.80
2023-05-03T22:07:05.683Z,5.53
2023-05-03T22:10:12.079Z,5.05
2023-05-03T22:13:17.893Z,4.87
2023-05-03T22:16:23.883Z,5.85
2023-05-03T22:19:30.934Z,5.80
2023-05-03T22:22:37.013Z,4.40
2023-05-03T22:25:42.239Z,4.03
2023-05-03T22:28:47.294Z,5.00
2023-05-03T22:31:53.542Z,4.25
2023-05-03T22:34:59.177Z,4.55
2023-05-03T22:38:04.870Z,4.80
2023-05-03T22:41:09.907Z,3.80
2023-05-03T22:44:14.536Z,3.83
2023-05-03T22:47:20.451Z,4.70
2023-05-03T22:50:25.499Z,4.33
2023-05-03T22:53:31.820Z,4.00
2023-05-03T22:56:37.591Z,4.20
2023-05-03T22:59:44.871Z,4.65
2023-05-03T23:02:50.196Z,4.08
2023-05-03T23:05:56.587Z,4.40
2023-05-03T23:09:01.910Z,4.47
2023-05-03T23:12:08.706Z,3.75
2023-05-03T23:15:13.981Z,4.20
2023-05-03T23:18:21.138Z,4.08
2023-05-03T23:21:26.232Z,3.95
2023-05-03T23:24:32.619Z,4.00
2023-05-03T23:27:39.431Z,3.83
2023-05-03T23:30:44.671Z,3.50
2023-05-03T23:33:50.198Z,3.98
2023-05-03T23:36:56.743Z,3.90
2023-05-03T23:40:02.633Z,4.28
2023-05-03T23:43:07.965Z,4.35
2023-05-03T23:46:13.744Z,4.58
2023-05-03T23:49:19.621Z,5.12
2023-05-03T23:52:27.527Z,4.65
2023-05-03T23:55:32.550Z,4.20
2023-05-03T23:58:38.597Z,4.58
